createdAt,value
2022-10-03T08:45:31.596Z,97653.41
2022-10-03T08:47:02.423Z,97645.81
2022-10-03T08:48:38.021Z,97647.25
2022-10-03T08:49:52.114Z,97643.94
2022-10-03T08:51:08.160Z,97642.28
2022-10-03T08:52:24.685Z,97649.69
2022-10-03T08:53:51.920Z,97643.81
2022-10-03T08:55:16.994Z,97648.78
2022-10-03T08:56:27.668Z,97643.50
2022-10-03T09:05:16.735Z,97586.72
2022-10-03T09:06:33.118Z,97655.19
2022-10-03T09:08:16.411Z,97650.44
2022-10-03T09:09:55.345Z,97644.28
2022-10-03T09:11:21.148Z,97653.97
2022-10-03T09:12:50.373Z,97648.97
2022-10-03T09:14:16.219Z,97646.38
2022-10-03T09:15:50.074Z,97643.94
2022-10-03T09:16:55.990Z,97648.13
2022-10-03T09:18:00.403Z,97645.22
2022-10-03T09:19:54.101Z,97638.69
2022-10-03T09:21:23.130Z,97636.88
2022-10-03T09:22:24.630Z,97641.75
2022-10-03T09:23:44.065Z,97639.94
2022-10-03T09:24:55.106Z,97634.44
2022-10-03T09:26:31.676Z,97632.22
2022-10-03T09:28:25.650Z,97632.56
2022-10-03T09:29:45.821Z,97637.28
2022-10-03T09:31:12.880Z,97633.53
2022-10-03T09:32:36.641Z,97642.44
2022-10-03T09:33:40.771Z,97638.38
2022-10-03T09:35:19.557Z,97638.72
2022-10-03T09:36:31.276Z,97642.66
2022-10-03T09:37:51.585Z,97630.13
2022-10-03T09:39:14.679Z,97631.84
2022-10-03T09:40:39.345Z,97631.13
2022-10-03T09:42:18.897Z,97627.31
2022-10-03T09:43:44.431Z,97627.88
2022-10-03T09:47:56.464Z,97630.06
2022-10-03T09:49:21.771Z,97628.59
2022-10-03T09:50:36.451Z,97629.88
2022-10-03T09:52:12.721Z,97611.53
2022-10-03T09:53:32.556Z,97622.59
2022-10-03T09:54:44.110Z,97618.63
2022-10-03T10:08:04.982Z,97624.44
2022-10-03T10:09:30.601Z,97623.63
2022-10-03T10:10:45.178Z,97629.16
2022-10-03T10:12:23.982Z,97626.59
2022-10-03T10:14:07.064Z,97623.47
2022-10-03T10:15:20.950Z,97631.97
2022-10-03T10:16:34.850Z,97628.22
2022-10-03T10:18:14.953Z,97596.09
2022-10-03T10:19:31.101Z,97634.19
2022-10-03T10:20:39.180Z,97630.59
2022-10-03T10:22:31.024Z,97631.78
2022-10-03T10:23:51.596Z,97627.81
2022-10-03T10:26:41.968Z,97633.69
2022-10-03T10:28:14.575Z,97634.34
2022-10-03T10:29:43.406Z,97631.34
2022-10-03T10:30:47.733Z,97633.38
2022-10-03T10:31:52.995Z,97631.97
2022-10-03T10:33:42.118Z,97624.81
2022-10-03T10:34:49.711Z,97637.47
2022-10-03T10:36:28.485Z,97635.00
2022-10-03T10:37:48.272Z,97637.25
2022-10-03T10:39:28.495Z,97637.00
2022-10-03T10:40:47.070Z,97643.16
2022-10-03T10:42:24.015Z,97640.22
2022-10-03T10:44:07.085Z,97641.28
2022-10-03T11:30:38.033Z,97609.97
2022-10-03T11:32:14.158Z,97632.91
2022-10-03T11:33:40.308Z,97626.69
2022-10-03T11:35:24.645Z,97631.47
2022-10-03T11:42:05.551Z,97623.94
2022-10-03T11:43:44.364Z,97624.00
2022-10-03T11:45:07.794Z,97614.50
2022-10-03T11:46:27.607Z,97619.22
2022-10-03T12:22:29.477Z,97595.38
2022-10-03T12:24:41.341Z,97597.56
2022-10-03T12:25:45.952Z,97588.50
2022-10-03T12:27:00.129Z,97596.59
2022-10-03T12:28:41.915Z,97596.22
2022-10-03T12:29:53.210Z,97579.44
2022-10-03T12:31:01.251Z,97593.69
2022-10-03T12:32:32.124Z,97583.13
2022-10-03T12:33:58.329Z,97581.56
2022-10-03T12:35:17.670Z,97573.19
2022-10-03T12:42:02.189Z,97581.44
2022-10-03T12:43:43.372Z,97578.59
2022-10-03T12:45:04.312Z,97567.78
2022-10-03T12:46:26.896Z,97554.00
2022-10-03T12:47:51.184Z,97574.75
2022-10-03T12:49:07.313Z,97561.34
2022-10-03T12:50:17.479Z,97570.06
2022-10-03T12:51:47.900Z,97572.28
2022-10-03T12:53:30.953Z,97568.56
2022-10-03T12:55:09.178Z,97554.41
2022-10-03T12:56:28.654Z,97566.31
2022-10-03T12:58:14.681Z,97567.03
2022-10-03T12:59:31.752Z,97561.44
2022-10-03T13:00:48.544Z,97562.31
2022-10-03T13:02:02.572Z,97561.31
2022-10-03T13:03:29.024Z,97560.69
2022-10-03T13:04:57.644Z,97543.34
2022-10-03T13:11:07.178Z,97556.63
2022-10-03T13:12:28.017Z,97558.50
2022-10-03T13:13:51.540Z,97562.00
2022-10-03T13:15:30.620Z,97561.56
2022-10-03T13:16:39.848Z,97557.06
2022-10-03T13:23:05.032Z,97556.38
2022-10-03T13:24:09.383Z,97558.41
2022-10-03T13:25:25.282Z,97560.72
2022-10-03T13:26:51.514Z,97561.00
2022-10-03T13:28:07.794Z,97564.28
2022-10-03T13:29:38.919Z,97562.53
2022-10-03T13:30:49.229Z,97552.22
2022-10-03T13:32:02.489Z,97556.53
2022-10-03T13:33:17.896Z,97552.03
2022-10-03T13:34:22.669Z,97549.81
2022-10-03T13:35:58.537Z,97550.16
2022-10-03T13:37:09.817Z,97536.69
2022-10-03T13:38:26.309Z,97557.59
2022-10-03T13:39:44.297Z,97551.31
2022-10-03T13:47:46.947Z,97550.63
2022-10-03T13:49:01.806Z,97549.84
2022-10-03T13:50:21.352Z,97554.69
2022-10-03T13:51:41.298Z,97539.69
2022-10-03T13:52:52.057Z,97546.63
2022-10-03T13:59:05.643Z,97539.66
2022-10-03T14:00:15.114Z,97542.97
2022-10-03T14:01:27.135Z,97546.41
2022-10-03T14:02:48.671Z,97540.78
2022-10-03T14:03:56.281Z,97538.50
2022-10-03T14:05:00.833Z,97539.50
2022-10-03T14:06:22.362Z,97532.19
2022-10-03T14:07:35.882Z,97528.00
2022-10-03T14:09:02.748Z,97532.16
2022-10-03T14:10:04.039Z,97527.63
2022-10-03T14:11:22.683Z,97526.56
2022-10-03T14:13:06.521Z,97531.94
2022-10-03T14:14:23.918Z,97513.56
2022-10-03T14:15:49.002Z,97530.81
2022-10-03T14:16:56.522Z,97519.19
2022-10-03T14:18:16.530Z,97526.63
2022-10-03T14:19:54.133Z,97506.63
2022-10-03T14:20:56.263Z,97523.59
2022-10-03T14:22:33.228Z,97535.16
2022-10-03T14:23:48.214Z,97522.66
2022-10-03T14:25:11.460Z,97526.88
2022-10-03T14:26:15.931Z,97527.13
2022-10-03T14:27:36.392Z,97526.34
2022-10-03T14:28:46.971Z,97511.28
2022-10-03T14:29:57.292Z,97504.09
2022-10-03T14:31:27.529Z,97515.00
2022-10-03T14:32:48.008Z,97514.72
2022-10-03T14:34:16.769Z,97520.97
2022-10-03T14:47:27.496Z,97520.63
2022-10-03T14:48:36.450Z,97519.63
2022-10-03T14:49:54.803Z,97519.50
2022-10-03T14:51:08.774Z,97508.53
2022-10-03T14:52:28.731Z,97509.91
2022-10-03T15:05:24.151Z,97487.25
2022-10-03T15:06:41.992Z,97504.72
2022-10-03T15:07:46.363Z,97501.75
2022-10-03T15:08:57.572Z,97502.44
2022-10-03T15:10:01.047Z,97506.81
2022-10-03T15:17:20.954Z,97505.31
2022-10-03T15:18:24.340Z,97503.34
2022-10-03T15:19:36.198Z,97508.69
2022-10-03T15:20:41.709Z,97510.34
2022-10-03T15:21:45.444Z,97493.28
2022-10-03T15:22:53.771Z,97499.84
2022-10-03T15:24:03.553Z,97503.41
2022-10-03T15:25:17.729Z,97509.44
2022-10-03T15:26:21.780Z,97490.72
2022-10-03T15:27:24.722Z,97505.31
2022-10-03T15:29:03.782Z,97503.16
2022-10-03T15:30:06.360Z,97500.06
2022-10-03T15:31:14.341Z,97508.16
2022-10-03T15:32:39.418Z,97510.78
2022-10-03T15:33:43.082Z,97489.06
2022-10-03T15:34:49.127Z,97506.31
2022-10-03T15:35:55.224Z,97505.06
2022-10-03T15:37:15.725Z,97488.94
2022-10-03T15:38:27.183Z,97486.59
2022-10-03T15:39:35.428Z,97496.22
2022-10-03T15:40:50.890Z,97478.97
2022-10-03T15:42:03.589Z,97504.06
2022-10-03T15:43:32.504Z,97494.28
2022-10-03T15:44:39.999Z,97499.47
2022-10-03T15:45:42.892Z,97466.13
2022-10-03T15:46:58.302Z,97502.09
2022-10-03T15:48:04.355Z,97500.22
2022-10-03T15:49:17.852Z,97496.44
2022-10-03T15:50:24.963Z,97493.13
2022-10-03T15:51:30.137Z,97491.78
2022-10-03T15:52:40.135Z,97494.81
2022-10-03T16:17:03.994Z,97490.41
2022-10-03T16:18:31.312Z,97489.63
2022-10-03T16:19:41.150Z,97487.81
2022-10-03T16:20:47.378Z,97484.50
2022-10-03T16:22:05.429Z,97479.47
2022-10-03T16:23:29.678Z,97489.03
2022-10-03T16:24:39.544Z,97475.84
